Terminal Aerodrome Forecast
Issued by NWS Cleveland, OH

Home | Current Version | Previous Version | Text Only | Print | Product List | Glossary Off
Versions: 1 2 3 4 5 6 7 8 9 10 11 12 13 14 15 16 17 18 19 20 21 22 23 24 25 26

000
FTUS41 KCLE 241459 AAA
TAFCLE
TAF AMD
KCLE 241459Z 2415/2518 18010KT P6SM SCT040 BKN250
     FM241900 20012KT P6SM BKN040
     FM250000 20012KT 6SM -SHRA VCTS OVC035CB
      TEMPO 2501/2503 3SM -TSRA OVC020CB
     FM250500 20010KT P6SM SCT020 OVC035
      TEMPO 2510/2514 5SM BR=

USA.gov is the U.S. government's official web portal to all federal, state and local government web resources and services.